createdAt,value
2023-03-29T05:05:11.061Z,31.16
2023-03-29T05:08:11.170Z,31.12
2023-03-29T05:09:11.186Z,31.12
2023-03-29T05:10:12.262Z,31.08
2023-03-29T05:13:11.368Z,31.15
2023-03-29T05:15:11.444Z,31.11
2023-03-29T05:16:11.574Z,31.16
2023-03-29T05:17:12.468Z,31.17
2023-03-29T05:18:12.531Z,31.14
2023-03-29T05:20:11.502Z,31.13
2023-03-29T05:21:12.523Z,31.23
2023-03-29T05:22:12.536Z,31.21
2023-03-29T05:28:11.574Z,31.81
2023-03-29T05:34:11.536Z,31.41
2023-03-29T05:35:11.552Z,31.31
2023-03-29T05:37:11.518Z,31.13
2023-03-29T05:40:11.501Z,31.10
2023-03-29T05:41:12.510Z,31.20
2023-03-29T05:43:11.489Z,31.14
2023-03-29T05:48:11.473Z,31.13
2023-03-29T05:49:12.471Z,31.32
2023-03-29T05:52:11.421Z,31.46
2023-03-29T05:54:11.399Z,31.29
2023-03-29T05:55:11.608Z,31.40
2023-03-29T05:56:11.423Z,31.55
2023-03-29T05:57:11.717Z,31.59
2023-03-29T05:58:12.376Z,31.81
2023-03-29T06:01:11.389Z,32.27
2023-03-29T06:03:20.364Z,32.22
2023-03-29T06:04:12.528Z,32.26
2023-03-29T06:05:12.340Z,32.42
2023-03-29T06:06:12.361Z,32.91
2023-03-29T06:09:11.335Z,33.15
2023-03-29T06:10:12.306Z,33.10
2023-03-29T06:11:12.325Z,33.30
2023-03-29T06:12:11.317Z,33.39
2023-03-29T06:13:12.294Z,33.27
2023-03-29T06:17:11.328Z,33.55
2023-03-29T06:18:12.359Z,33.39
2023-03-29T06:19:12.251Z,33.48
2023-03-29T06:24:11.221Z,33.64
2023-03-29T06:25:12.249Z,33.60
2023-03-29T06:26:12.196Z,33.71
2023-03-29T06:27:12.205Z,33.55
2023-03-29T06:29:11.205Z,33.56
2023-03-29T06:31:11.208Z,33.60
2023-03-29T06:33:11.218Z,33.82
2023-03-29T06:35:11.185Z,33.73
2023-03-29T06:36:12.191Z,33.83
2023-03-29T06:39:11.149Z,33.95
2023-03-29T06:40:12.131Z,33.84
2023-03-29T06:41:12.134Z,33.98
2023-03-29T06:42:20.602Z,34.00
2023-03-29T06:45:11.104Z,34.13
2023-03-29T06:47:11.091Z,34.38
2023-03-29T06:48:12.099Z,34.25
2023-03-29T06:49:11.074Z,34.46
2023-03-29T06:50:11.078Z,34.39
2023-03-29T06:52:11.227Z,34.40
2023-03-29T06:53:12.036Z,34.40
2023-03-29T06:54:12.042Z,34.39
2023-03-29T06:55:12.069Z,34.43
2023-03-29T06:56:12.031Z,34.53
2023-03-29T06:57:12.277Z,34.65
2023-03-29T07:01:10.981Z,34.61
2023-03-29T07:02:12.015Z,34.68
2023-03-29T07:03:11.043Z,34.81
2023-03-29T07:06:10.977Z,35.31
2023-03-29T07:08:11.243Z,32.68
2023-03-29T07:09:11.934Z,31.36
2023-03-29T07:13:10.909Z,31.89
2023-03-29T07:14:11.903Z,32.10
2023-03-29T07:15:11.909Z,31.89
2023-03-29T07:16:11.914Z,32.31
2023-03-29T07:20:10.877Z,33.16
2023-03-29T07:21:11.932Z,33.18
2023-03-29T07:22:11.862Z,33.19
2023-03-29T07:23:11.893Z,33.26
2023-03-29T07:24:11.847Z,33.25
2023-03-29T07:27:10.864Z,33.90
2023-03-29T07:28:11.811Z,33.83
2023-03-29T07:29:11.807Z,33.82
2023-03-29T07:31:10.801Z,33.83
2023-03-29T07:34:10.756Z,34.19
2023-03-29T07:36:10.796Z,33.92
2023-03-29T07:37:11.736Z,33.99
2023-03-29T07:40:10.723Z,34.37
2023-03-29T07:41:11.738Z,34.36
2023-03-29T07:42:11.738Z,34.30
2023-03-29T07:43:11.713Z,34.28
2023-03-29T07:44:11.681Z,34.23
2023-03-29T07:45:11.684Z,34.40
2023-03-29T07:48:10.772Z,34.43
2023-03-29T07:50:10.726Z,34.66
2023-03-29T07:51:11.752Z,34.71
2023-03-29T07:52:12.253Z,34.35
2023-03-29T07:53:11.806Z,34.60
2023-03-29T07:54:11.831Z,33.84
2023-03-29T07:58:10.918Z,33.84
2023-03-29T07:59:11.960Z,33.96
2023-03-29T08:03:11.130Z,34.26
2023-03-29T08:04:12.174Z,34.30
2023-03-29T08:05:12.063Z,34.36
2023-03-29T08:06:12.091Z,34.26
2023-03-29T08:07:12.098Z,34.37
2023-03-29T08:08:12.110Z,34.26
2023-03-29T08:09:12.138Z,34.30
2023-03-29T08:10:12.178Z,34.47
2023-03-29T08:11:11.142Z,34.47
2023-03-29T08:12:12.174Z,34.41
2023-03-29T08:14:11.218Z,34.52
2023-03-29T08:15:12.281Z,34.56
2023-03-29T08:17:11.321Z,34.64
2023-03-29T08:20:11.394Z,34.31
2023-03-29T08:21:12.427Z,34.55
2023-03-29T08:22:12.426Z,34.59
2023-03-29T08:23:12.539Z,34.49
2023-03-29T08:24:12.487Z,35.11
2023-03-29T08:25:12.497Z,35.10
2023-03-29T08:26:12.505Z,35.33
2023-03-29T08:28:11.517Z,35.52
2023-03-29T08:31:11.649Z,35.31
2023-03-29T08:32:12.613Z,35.42
2023-03-29T08:33:12.661Z,35.56
2023-03-29T08:34:12.634Z,36.11
2023-03-29T08:35:12.656Z,36.40
2023-03-29T08:38:11.704Z,36.35
2023-03-29T08:40:11.750Z,35.95
2023-03-29T08:41:11.792Z,35.95
2023-03-29T08:42:13.297Z,35.83
2023-03-29T08:45:11.860Z,35.78
2023-03-29T08:47:11.908Z,35.87
2023-03-29T08:49:11.893Z,35.91
2023-03-29T08:50:11.930Z,36.00
2023-03-29T08:52:11.995Z,36.03
2023-03-29T08:53:13.067Z,36.13
2023-03-29T08:54:13.083Z,36.09
2023-03-29T08:55:13.111Z,36.15
2023-03-29T08:56:13.149Z,36.34
2023-03-29T08:57:12.191Z,36.34
2023-03-29T08:58:13.285Z,36.32
2023-03-29T08:59:12.264Z,36.27
2023-03-29T09:02:12.383Z,36.08
2023-03-29T09:03:13.488Z,36.23
2023-03-29T09:04:13.456Z,36.20
2023-03-29T09:05:13.457Z,36.19
2023-03-29T09:06:13.470Z,36.23
2023-03-29T09:07:13.482Z,36.09
2023-03-29T09:08:13.591Z,35.98
2023-03-29T09:09:13.540Z,36.05
2023-03-29T09:10:13.625Z,36.22
2023-03-29T09:11:13.646Z,36.08
2023-03-29T09:12:13.651Z,36.22
2023-03-29T09:13:13.782Z,36.24
2023-03-29T09:14:13.783Z,36.23
2023-03-29T09:15:13.778Z,36.24
2023-03-29T09:16:13.862Z,36.20
2023-03-29T09:17:12.819Z,36.15
2023-03-29T09:18:13.904Z,36.18
2023-03-29T09:19:13.920Z,36.22
2023-03-29T09:22:12.992Z,36.17
2023-03-29T09:23:14.043Z,36.21
2023-03-29T09:24:14.071Z,36.33
2023-03-29T09:25:14.121Z,36.38
2023-03-29T09:26:14.139Z,36.36
2023-03-29T09:27:14.197Z,36.32
2023-03-29T09:28:14.234Z,36.33
2023-03-29T09:29:14.263Z,36.36
2023-03-29T09:30:14.295Z,36.39
2023-03-29T09:31:14.368Z,36.33
2023-03-29T09:32:14.347Z,36.42
2023-03-29T09:33:14.466Z,36.47
2023-03-29T09:34:15.780Z,36.30
2023-03-29T09:35:14.521Z,36.37
2023-03-29T09:36:14.611Z,36.27
2023-03-29T09:37:13.595Z,36.22
2023-03-29T09:38:13.632Z,36.30
2023-03-29T09:39:14.654Z,36.42
2023-03-29T09:40:14.714Z,36.39
2023-03-29T09:41:14.746Z,36.20
2023-03-29T09:45:13.944Z,36.32
2023-03-29T09:46:14.072Z,36.18
2023-03-29T09:47:15.041Z,36.38
2023-03-29T09:48:15.295Z,36.26
2023-03-29T09:49:16.685Z,36.37
2023-03-29T09:50:27.731Z,36.37
2023-03-29T09:51:15.164Z,36.33
2023-03-29T09:53:14.125Z,36.26
2023-03-29T09:54:15.138Z,36.42
2023-03-29T09:55:15.131Z,36.26
2023-03-29T09:59:14.084Z,35.84
2023-03-29T10:00:15.071Z,35.84
2023-03-29T10:01:14.143Z,35.85
2023-03-29T10:02:14.095Z,35.75
2023-03-29T10:03:15.166Z,35.78
2023-03-29T10:05:14.040Z,35.61
2023-03-29T10:06:15.028Z,35.80
2023-03-29T10:07:15.064Z,35.62
2023-03-29T10:08:16.642Z,35.56
2023-03-29T10:12:14.015Z,35.89
2023-03-29T10:13:15.004Z,35.82
2023-03-29T10:14:15.009Z,35.99
2023-03-29T10:16:14.004Z,35.77
2023-03-29T10:17:14.967Z,36.16
2023-03-29T10:18:14.975Z,35.71
2023-03-29T10:22:13.956Z,35.39
2023-03-29T10:23:13.976Z,35.46
2023-03-29T10:24:13.947Z,35.39
2023-03-29T10:26:33.101Z,35.35
2023-03-29T10:28:52.209Z,35.59
2023-03-29T10:30:52.134Z,35.45
2023-03-29T10:31:52.219Z,35.64
2023-03-29T10:32:53.214Z,35.60
2023-03-29T10:33:53.212Z,35.63
2023-03-29T10:36:52.355Z,35.85
2023-03-29T10:37:53.185Z,35.69
2023-03-29T10:38:53.206Z,35.61
2023-03-29T10:39:53.516Z,36.02
2023-03-29T10:59:27.734Z,35.97
2023-03-29T11:02:46.804Z,35.81
2023-03-29T11:03:47.767Z,35.83
2023-03-29T11:04:46.635Z,35.78
2023-03-29T11:05:47.881Z,35.84
2023-03-29T11:06:46.617Z,35.77
2023-03-29T11:07:46.625Z,35.77
2023-03-29T11:08:47.670Z,35.68
2023-03-29T11:12:46.572Z,35.77
2023-03-29T11:13:47.562Z,35.63
2023-03-29T11:14:47.677Z,35.79
2023-03-29T11:15:47.564Z,35.46
2023-03-29T11:17:46.564Z,35.89
2023-03-29T11:20:46.528Z,36.21
2023-03-29T11:21:47.515Z,36.03
2023-03-29T11:22:46.521Z,35.92
2023-03-29T11:23:46.503Z,36.13
2023-03-29T11:24:47.510Z,35.96
2023-03-29T11:26:46.491Z,35.87
2023-03-29T11:27:47.608Z,35.80
2023-03-29T11:28:47.615Z,35.95
2023-03-29T11:29:47.453Z,36.15
2023-03-29T11:30:47.713Z,36.01
2023-03-29T11:31:46.506Z,35.24
2023-03-29T11:32:47.525Z,34.66
2023-03-29T11:33:47.475Z,34.95
2023-03-29T11:36:46.394Z,35.85
2023-03-29T11:37:47.554Z,35.42
2023-03-29T11:38:47.463Z,34.98
2023-03-29T11:39:47.861Z,35.27
2023-03-29T11:40:47.496Z,35.49
2023-03-29T11:41:47.395Z,35.36
2023-03-29T11:45:46.393Z,35.42
2023-03-29T11:46:47.567Z,35.49
2023-03-29T11:47:47.470Z,35.56
2023-03-29T11:52:46.499Z,35.72
2023-03-29T11:53:47.552Z,35.77
2023-03-29T11:54:47.565Z,35.79
2023-03-29T11:55:47.547Z,35.90
2023-03-29T11:56:47.751Z,35.93
2023-03-29T11:57:47.641Z,35.89
2023-03-29T11:58:47.731Z,35.97
2023-03-29T11:59:47.642Z,35.84
2023-03-29T12:00:47.646Z,36.06
2023-03-29T12:02:46.874Z,36.16
2023-03-29T12:03:47.836Z,36.22
2023-03-29T12:04:47.707Z,36.20
2023-03-29T12:08:46.767Z,36.22
2023-03-29T12:09:47.783Z,36.21
2023-03-29T12:10:47.774Z,36.35
2023-03-29T12:11:47.792Z,36.48
2023-03-29T12:12:47.841Z,36.35
2023-03-29T12:16:46.980Z,36.32
2023-03-29T12:17:47.930Z,36.35
2023-03-29T12:21:47.050Z,36.49
2023-03-29T12:22:48.022Z,36.30
2023-03-29T12:23:48.052Z,36.34
2023-03-29T12:25:47.084Z,36.55
2023-03-29T12:26:48.092Z,36.46
2023-03-29T12:27:48.131Z,36.43
2023-03-29T12:28:48.147Z,36.44
2023-03-29T12:29:48.166Z,36.46
2023-03-29T12:30:48.182Z,36.55
2023-03-29T12:31:48.228Z,36.55
2023-03-29T12:32:48.232Z,36.54
2023-03-29T12:33:48.299Z,36.41
2023-03-29T12:34:48.349Z,36.50
2023-03-29T12:36:47.332Z,36.52
2023-03-29T12:37:48.353Z,36.63
2023-03-29T12:38:48.373Z,36.59
2023-03-29T12:39:48.434Z,36.47
2023-03-29T12:40:48.422Z,36.68
2023-03-29T12:41:48.457Z,36.55
2023-03-29T12:43:47.486Z,36.51
2023-03-29T12:44:48.516Z,36.70
2023-03-29T12:48:47.595Z,36.69
2023-03-29T12:49:47.651Z,36.62
2023-03-29T12:50:48.690Z,36.75
2023-03-29T12:52:47.707Z,36.77
2023-03-29T12:53:48.739Z,36.57
2023-03-29T12:54:48.764Z,36.64
2023-03-29T12:55:48.769Z,36.70
2023-03-29T12:56:48.895Z,36.74
2023-03-29T12:57:48.823Z,36.68
2023-03-29T12:58:48.869Z,36.73
2023-03-29T12:59:48.887Z,36.73
2023-03-29T13:04:48.040Z,36.62
2023-03-29T13:05:49.140Z,36.49
2023-03-29T13:06:50.984Z,36.67
2023-03-29T13:09:48.035Z,36.69
2023-03-29T13:10:49.036Z,36.69
2023-03-29T13:15:48.035Z,36.65
2023-03-29T13:16:49.062Z,36.58
2023-03-29T13:20:47.973Z,36.68
2023-03-29T13:21:48.961Z,36.60
2023-03-29T13:22:48.992Z,36.71
2023-03-29T13:25:47.921Z,36.56
2023-03-29T13:26:48.923Z,36.54
2023-03-29T13:27:48.920Z,36.60
2023-03-29T13:28:47.942Z,36.56
2023-03-29T13:29:48.929Z,36.61
2023-03-29T13:34:47.866Z,36.50
2023-03-29T13:35:48.930Z,36.65
2023-03-29T13:36:48.849Z,36.72
2023-03-29T13:40:48.009Z,36.60
2023-03-29T13:41:48.837Z,36.58
2023-03-29T13:42:48.821Z,36.61
2023-03-29T13:47:58.650Z,36.50
2023-03-29T13:48:48.787Z,36.54
2023-03-29T13:49:51.558Z,36.47
2023-03-29T13:52:47.745Z,36.51
2023-03-29T13:53:48.744Z,36.53
2023-03-29T13:54:47.844Z,36.46
2023-03-29T13:55:48.736Z,36.51
2023-03-29T13:56:48.742Z,36.50
2023-03-29T13:57:48.712Z,36.50
2023-03-29T14:02:49.415Z,36.62
2023-03-29T14:03:48.675Z,36.43
2023-03-29T14:05:47.671Z,36.58
2023-03-29T14:06:48.641Z,36.45
2023-03-29T14:07:48.667Z,36.65
2023-03-29T14:12:47.656Z,36.60
2023-03-29T14:13:48.618Z,36.40
2023-03-29T14:16:47.769Z,36.59
2023-03-29T14:17:48.840Z,36.51
2023-03-29T14:19:47.914Z,36.56
2023-03-29T14:20:48.875Z,36.59
2023-03-29T14:21:48.874Z,36.59
2023-03-29T14:22:48.882Z,36.60
2023-03-29T14:23:48.941Z,36.61
2023-03-29T14:24:48.968Z,36.47
2023-03-29T14:25:49.059Z,36.67
2023-03-29T14:26:49.010Z,36.60
2023-03-29T14:27:49.050Z,36.56
2023-03-29T14:28:49.048Z,36.58
2023-03-29T14:29:49.072Z,36.57
2023-03-29T14:30:49.101Z,36.55
2023-03-29T14:31:49.188Z,36.54
2023-03-29T14:32:49.231Z,36.59
2023-03-29T14:34:48.248Z,36.57
2023-03-29T14:35:49.321Z,36.52
2023-03-29T14:36:49.438Z,36.49
2023-03-29T14:37:49.315Z,36.48
2023-03-29T14:38:49.377Z,36.60
2023-03-29T14:39:49.424Z,36.64
2023-03-29T14:40:49.421Z,36.47
2023-03-29T14:41:49.508Z,36.55
2023-03-29T14:42:49.448Z,36.52
2023-03-29T14:43:49.441Z,36.52
2023-03-29T14:50:48.646Z,36.43
2023-03-29T14:51:49.688Z,36.60
2023-03-29T14:52:51.761Z,36.65
2023-03-29T14:54:48.684Z,36.57
2023-03-29T14:55:49.691Z,36.54
2023-03-29T14:56:48.837Z,36.38
2023-03-29T14:57:49.667Z,36.56
2023-03-29T14:58:49.696Z,36.52
2023-03-29T15:02:48.729Z,36.55
2023-03-29T15:03:49.668Z,36.49
2023-03-29T15:04:49.675Z,36.57
2023-03-29T15:05:49.619Z,36.58
2023-03-29T15:06:48.604Z,36.55
2023-03-29T15:07:49.580Z,36.57
2023-03-29T15:09:02.012Z,36.60
2023-03-29T15:14:48.607Z,37.80
2023-03-29T15:15:49.601Z,36.26
2023-03-29T15:16:49.522Z,35.27
2023-03-29T15:17:51.747Z,35.87
2023-03-29T15:18:49.536Z,35.38
2023-03-29T15:19:49.503Z,35.40
2023-03-29T15:20:49.547Z,34.98
2023-03-29T15:24:48.505Z,35.63
2023-03-29T15:25:49.480Z,35.88
2023-03-29T15:26:49.485Z,36.21
2023-03-29T15:28:48.448Z,36.22
2023-03-29T15:29:49.463Z,36.15
